Time;durP1;ratioP1;P1;durP2;ratioP2;P2;SDS_P1;SDS_P2;PMS_P1;PMS_P2;Temp;Humidity;BMP_temperature;BMP_pressure;BME280_temperature;BME280_humidity;BME280_pressure;Samples;Min_cycle;Max_cycle;Signal;HPM_P1;HPM_P2
2021/12/01 00:01:53;;;;;;;7.50;2.55;;;;;;;3.40;87.08;97156.81;4535539;31;19988;-76
2021/12/01 00:04:20;;;;;;;7.62;2.30;;;;;;;3.37;87.26;97155.19;4535111;31;20098;-76
2021/12/01 00:06:46;;;;;;;;;;;;;;;3.44;88.03;97149.06;4535857;31;20139;-76
2021/12/01 00:09:13;;;;;;;6.70;1.90;;;;;;;3.65;87.33;97147.59;4535312;31;19973;-76
2021/12/01 00:11:40;;;;;;;;;;;;;;;3.56;87.77;97150.41;4535021;31;20094;-76
2021/12/01 00:14:07;;;;;;;3.67;1.58;;;;;;;3.57;87.46;97139.31;4535397;31;20308;-76
2021/12/01 00:16:34;;;;;;;;;;;;;;;3.58;87.48;97137.63;4535708;31;20509;-76
2021/12/01 00:19:01;;;;;;;4.03;1.65;;;;;;;3.62;86.55;97144.31;4534947;31;19967;-76
2021/12/01 00:21:28;;;;;;;4.53;1.52;;;;;;;3.79;85.86;97142.06;4535262;31;20103;-76
2021/12/01 00:23:55;;;;;;;5.60;1.48;;;;;;;3.78;85.92;97132.75;4535158;31;20143;-76
2021/12/01 00:26:21;;;;;;;;;;;;;;;3.82;85.77;97141.13;4535549;31;20146;-76
2021/12/01 00:28:48;;;;;;;3.53;1.45;;;;;;;3.85;85.04;97146.16;4535151;31;20459;-76
2021/12/01 00:31:15;;;;;;;5.85;1.60;;;;;;;3.86;84.80;97147.84;4534913;31;20155;-76
2021/12/01 00:33:43;;;;;;;3.40;1.42;;;;;;;3.99;84.48;97149.97;4535074;31;20736;-76
2021/12/01 00:36:13;;;;;;;3.55;1.40;;;;;;;4.14;83.52;97151.19;4535338;31;20138;-76
2021/12/01 00:38:42;;;;;;;4.28;1.60;;;;;;;4.24;83.21;97160.22;4533672;31;20087;-76
2021/12/01 00:41:10;;;;;;;3.08;1.50;;;;;;;4.28;83.20;97149.06;4520875;31;20147;-76
2021/12/01 00:43:40;;;;;;;6.45;1.58;;;;;;;4.41;83.27;97153.75;4535249;31;20105;-77
2021/12/01 00:46:22;;;;;;;3.90;1.60;;;;;;;4.58;81.98;97156.63;4520672;31;20146;-77
2021/12/01 00:48:49;;;;;;;4.15;1.52;;;;;;;4.57;82.33;97145.56;4535058;31;20079;-76
2021/12/01 00:51:16;;;;;;;3.97;1.35;;;;;;;4.58;82.61;97156.63;4535110;31;20096;-77
2021/12/01 00:53:44;;;;;;;3.53;1.52;;;;;;;4.60;82.13;97154.84;4534716;31;20142;-76
2021/12/01 00:56:11;;;;;;;3.87;1.35;;;;;;;4.70;81.84;97153.66;4535094;31;20101;-76
2021/12/01 00:58:38;;;;;;;;;;;;;;;4.75;81.41;97161.16;4535227;31;20346;-76
2021/12/01 01:01:05;;;;;;;3.28;1.35;;;;;;;4.73;81.05;97162.91;4534731;31;20000;-76
2021/12/01 01:03:32;;;;;;;4.50;1.30;;;;;;;4.78;79.74;97161.88;4534983;31;20110;-76
2021/12/01 01:05:59;;;;;;;3.47;1.40;;;;;;;4.79;79.88;97161.00;4534688;31;20138;-76
2021/12/01 01:08:26;;;;;;;1.77;0.93;;;;;;;4.78;80.23;97153.38;4534843;31;20087;-77
2021/12/01 01:16:22;;;;;;;3.42;1.20;;;;;;;5.35;77.74;97150.50;4534858;31;20182;-76
2021/12/01 01:19:04;;;;;;;2.03;1.00;;;;;;;5.45;77.50;97151.00;4534756;31;20083;-76
2021/12/01 01:21:38;;;;;;;2.17;1.10;;;;;;;5.45;77.25;97144.16;4534454;31;20103;-77
2021/12/01 01:24:05;;;;;;;4.45;1.17;;;;;;;5.56;76.49;97133.53;4534879;31;20098;-76
2021/12/01 01:26:32;;;;;;;2.17;0.98;;;;;;;5.74;75.97;97155.91;4534703;31;20120;-76
2021/12/01 01:28:59;;;;;;;3.42;1.00;;;;;;;5.83;75.98;97152.13;4534078;31;20098;-76
2021/12/01 01:31:27;;;;;;;3.47;1.12;;;;;;;5.89;75.20;97153.62;4534537;31;20118;-77
2021/12/01 01:33:54;;;;;;;2.95;1.10;;;;;;;5.87;75.33;97156.25;4520210;31;20471;-77
2021/12/01 01:36:22;;;;;;;3.28;1.00;;;;;;;5.78;75.37;97156.59;4534158;31;20162;-77
2021/12/01 01:38:49;;;;;;;2.40;1.20;;;;;;;5.68;76.20;97163.78;4534223;31;20079;-76
2021/12/01 01:41:17;;;;;;;5.05;1.65;;;;;;;5.58;76.85;97165.03;4534148;31;20146;-76
2021/12/01 01:43:46;;;;;;;6.10;1.60;;;;;;;5.54;77.41;97162.62;4534407;31;20096;-76
2021/12/01 01:46:14;;;;;;;3.53;1.37;;;;;;;5.35;77.42;97150.50;4534385;31;20083;-76
2021/12/01 01:48:53;;;;;;;3.58;1.45;;;;;;;4.99;78.93;97150.06;4533884;31;20084;-77
2021/12/01 01:51:24;;;;;;;3.92;1.40;;;;;;;5.09;77.95;97136.09;4535666;31;20122;-77
2021/12/01 01:53:54;;;;;;;5.28;1.60;;;;;;;5.18;77.66;97132.38;4522028;31;20126;-76
2021/12/01 01:56:21;;;;;;;5.68;1.83;;;;;;;4.89;78.36;97136.81;4536078;31;20159;-76
2021/12/01 01:58:48;;;;;;;3.90;1.50;;;;;;;4.92;77.73;97123.91;4536169;31;20490;-76
2021/12/01 02:04:03;;;;;;;4.28;1.55;;;;;;;4.67;78.77;97137.56;4536001;31;20091;-76
2021/12/01 02:06:31;;;;;;;4.50;1.60;;;;;;;4.71;78.64;97145.09;4521976;31;20445;-76
2021/12/01 02:08:58;;;;;;;5.53;1.70;;;;;;;4.55;79.49;97159.25;4536172;31;20649;-76
2021/12/01 02:11:28;;;;;;;4.05;1.65;;;;;;;4.79;78.74;97158.44;4535642;31;20131;-77
2021/12/01 02:13:56;;;;;;;3.17;1.30;;;;;;;4.74;79.02;97170.53;4536215;31;20162;-77
2021/12/01 02:16:23;;;;;;;3.75;1.60;;;;;;;4.89;77.70;97171.72;4535891;31;20092;-76
2021/12/01 02:18:50;;;;;;;4.85;1.60;;;;;;;5.12;76.76;97170.97;4536109;31;20084;-77
2021/12/01 02:21:27;;;;;;;3.97;1.48;;;;;;;5.07;76.25;97172.81;4521730;31;20464;-76
2021/12/01 02:23:58;;;;;;;5.43;1.63;;;;;;;5.15;75.95;97171.69;4535922;31;20083;-77
2021/12/01 02:26:27;;;;;;;3.53;1.40;;;;;;;5.20;77.25;97174.91;4536169;31;20095;-76
2021/12/01 02:28:56;;;;;;;4.40;1.65;;;;;;;5.15;77.40;97175.97;4536076;31;20488;-77
2021/12/01 02:31:30;;;;;;;5.72;1.50;;;;;;;5.12;76.59;97166.69;4535734;31;20122;-77
2021/12/01 02:33:57;;;;;;;4.93;1.62;;;;;;;5.23;75.98;97169.69;4536192;31;20606;-77
2021/12/01 02:36:24;;;;;;;7.40;2.20;;;;;;;5.42;74.99;97169.88;4536114;31;20095;-76
2021/12/01 02:38:51;;;;;;;5.78;1.62;;;;;;;5.21;76.06;97168.09;4521271;31;20083;-76
2021/12/01 02:41:29;;;;;;;4.10;1.50;;;;;;;5.28;75.44;97169.50;4535967;31;20159;-77
2021/12/01 02:43:57;;;;;;;3.85;1.60;;;;;;;5.12;75.51;97179.47;4536187;31;20163;-77
2021/12/01 02:46:25;;;;;;;4.18;1.50;;;;;;;4.99;75.13;97187.59;4535663;31;20500;-77
2021/12/01 02:48:53;;;;;;;4.78;1.55;;;;;;;5.04;75.66;97183.16;4535941;31;20079;-77
2021/12/01 02:51:24;;;;;;;3.75;1.58;;;;;;;5.18;75.31;97194.56;4521173;31;20405;-77
2021/12/01 02:53:51;;;;;;;5.72;1.77;;;;;;;5.18;74.70;97192.03;4536164;31;20099;-77
2021/12/01 02:56:21;;;;;;;4.70;1.90;;;;;;;4.85;75.59;97203.41;4535999;31;20079;-77
2021/12/01 02:58:49;;;;;;;4.85;1.70;;;;;;;5.06;75.81;97210.34;4535652;31;20087;-77
2021/12/01 03:01:21;;;;;;;4.57;1.90;;;;;;;4.92;75.76;97213.38;4535696;31;20136;-76
2021/12/01 03:03:49;;;;;;;4.45;1.50;;;;;;;4.70;76.79;97214.97;4535731;31;20106;-77
2021/12/01 03:06:17;;;;;;;6.82;1.67;;;;;;;4.87;76.57;97210.13;4535577;31;20465;-77
2021/12/01 03:08:46;;;;;;;7.20;1.80;;;;;;;4.90;75.83;97212.59;4535818;31;20158;-77
2021/12/01 03:11:13;;;;;;;8.27;1.90;;;;;;;4.90;76.85;97222.00;4535641;31;20106;-77
2021/12/01 03:13:40;;;;;;;2.03;1.35;;;;;;;5.19;74.64;97226.09;4535579;31;20110;-77
2021/12/01 03:16:07;;;;;;;6.80;1.90;;;;;;;5.12;74.55;97229.78;4535655;31;20166;-77
2021/12/01 03:18:34;;;;;;;6.22;2.00;;;;;;;4.88;74.61;97224.56;4535769;31;20462;-77
2021/12/01 03:21:02;;;;;;;7.00;2.05;;;;;;;5.07;73.18;97223.97;4535349;31;20145;-74
2021/12/01 03:23:29;;;;;;;3.17;1.60;;;;;;;5.11;73.47;97239.16;4535936;31;20422;-76
2021/12/01 03:25:55;;;;;;;4.47;1.70;;;;;;;5.12;72.47;97234.87;4535822;31;20120;-76
2021/12/01 03:28:22;;;;;;;5.80;1.80;;;;;;;5.27;70.56;97233.50;4535365;31;20083;-76
2021/12/01 03:30:49;;;;;;;6.60;2.03;;;;;;;5.63;69.49;97228.81;4521350;31;20158;-76
2021/12/01 03:33:20;;;;;;;4.22;1.70;;;;;;;5.68;70.08;97237.19;4535931;31;20095;-76
2021/12/01 03:35:49;;;;;;;5.03;1.95;;;;;;;5.79;70.04;97235.91;4536233;31;20079;-76
2021/12/01 03:38:17;;;;;;;4.37;2.10;;;;;;;5.63;69.82;97231.38;4536633;31;20458;-76
2021/12/01 03:40:45;;;;;;;5.75;1.75;;;;;;;5.74;69.48;97242.06;4536434;31;20413;-75
2021/12/01 03:43:12;;;;;;;4.90;1.73;;;;;;;5.60;69.81;97239.16;4537077;31;20095;-75
2021/12/01 03:45:40;;;;;;;4.55;1.90;;;;;;;5.44;72.95;97239.72;4535624;31;20161;-76
2021/12/01 03:48:07;;;;;;;5.32;1.87;;;;;;;4.90;75.05;97248.38;4520950;31;20083;-76
2021/12/01 03:50:36;;;;;;;4.78;1.98;;;;;;;5.03;76.16;97250.53;4521336;31;20474;-76
2021/12/01 03:53:03;;;;;;;6.20;2.03;;;;;;;4.94;75.84;97246.56;4535533;31;20483;-76
2021/12/01 03:55:30;;;;;;;4.87;1.75;;;;;;;5.40;74.12;97240.69;4535127;31;20165;-76
2021/12/01 03:57:57;;;;;;;6.78;1.90;;;;;;;5.77;72.27;97234.28;4521107;31;20488;-76
2021/12/01 04:00:24;;;;;;;6.80;1.85;;;;;;;5.62;71.54;97239.94;4535546;31;20146;-76
2021/12/01 04:02:51;;;;;;;5.68;1.90;;;;;;;5.40;73.53;97237.31;4535108;31;20108;-76
2021/12/01 04:05:18;;;;;;;4.37;1.75;;;;;;;5.20;73.83;97246.50;4535388;31;20094;-76
2021/12/01 04:07:45;;;;;;;4.85;2.00;;;;;;;5.04;74.21;97247.91;4535492;31;20095;-76
2021/12/01 04:10:14;;;;;;;4.68;1.92;;;;;;;5.55;72.49;97243.63;4535215;31;20150;-76
2021/12/01 04:12:44;;;;;;;3.72;1.73;;;;;;;5.31;73.34;97235.91;4535048;31;20100;-76
2021/12/01 04:15:12;;;;;;;5.72;1.85;;;;;;;5.87;70.88;97237.34;4535323;31;20153;-76
2021/12/01 04:17:41;;;;;;;5.43;1.73;;;;;;;6.03;69.78;97246.97;4535015;31;20119;-76
2021/12/01 04:20:09;;;;;;;5.12;1.85;;;;;;;5.93;69.67;97240.53;4535462;31;20139;-76
2021/12/01 04:22:36;;;;;;;5.10;2.00;;;;;;;5.93;70.40;97245.66;4520632;31;20132;-76
2021/12/01 04:25:04;;;;;;;5.00;1.75;;;;;;;5.71;70.11;97247.28;4521255;31;20107;-76
2021/12/01 04:27:31;;;;;;;6.35;2.10;;;;;;;5.83;70.27;97249.41;4535425;31;20101;-76
2021/12/01 04:29:58;;;;;;;6.30;1.90;;;;;;;5.87;69.89;97248.41;4534959;31;20147;-76
2021/12/01 04:32:25;;;;;;;5.72;2.10;;;;;;;5.27;73.11;97259.94;4535241;31;20469;-76
2021/12/01 04:34:52;;;;;;;4.40;1.87;;;;;;;5.12;74.41;97258.72;4520811;31;20101;-76
2021/12/01 04:37:20;;;;;;;4.43;1.95;;;;;;;5.40;72.91;97252.66;4534911;31;20397;-76
2021/12/01 04:39:47;;;;;;;6.75;2.17;;;;;;;5.47;72.55;97249.00;4535096;31;20724;-76
2021/12/01 04:42:14;;;;;;;5.60;2.05;;;;;;;5.49;71.80;97260.84;4535232;31;20131;-76
2021/12/01 04:44:41;;;;;;;4.60;1.73;;;;;;;5.00;74.34;97256.59;4534935;31;20097;-76
2021/12/01 04:47:12;;;;;;;6.82;2.25;;;;;;;4.99;74.55;97262.56;4520788;31;20158;-76
2021/12/01 04:49:40;;;;;;;6.00;2.28;;;;;;;5.45;72.43;97268.69;4535050;31;20508;-76
2021/12/01 04:52:09;;;;;;;5.75;2.08;;;;;;;5.83;70.00;97272.44;4534849;31;20108;-76
2021/12/01 04:54:36;;;;;;;6.00;2.00;;;;;;;5.72;70.02;97279.69;4534851;31;20150;-76
2021/12/01 04:57:04;;;;;;;4.57;1.90;;;;;;;6.00;68.49;97282.94;4535081;31;20083;-76
2021/12/01 04:59:33;;;;;;;6.90;2.05;;;;;;;5.74;69.57;97285.56;4534626;31;20532;-76
2021/12/01 05:02:01;;;;;;;6.43;2.05;;;;;;;5.75;69.72;97288.09;4534968;31;20112;-76
2021/12/01 05:04:28;;;;;;;5.62;2.22;;;;;;;6.06;68.62;97289.56;4534983;31;20099;-76
2021/12/01 05:06:56;;;;;;;4.62;2.00;;;;;;;6.18;67.59;97288.31;4534713;31;20442;-76
2021/12/01 05:09:23;;;;;;;5.93;1.90;;;;;;;5.92;68.67;97286.69;4534649;31;20103;-76
2021/12/01 05:11:50;;;;;;;5.30;1.98;;;;;;;6.31;67.18;97285.22;4519923;31;20453;-76
2021/12/01 05:14:17;;;;;;;4.50;1.80;;;;;;;6.00;68.70;97282.13;4520465;31;20507;-76
2021/12/01 05:16:44;;;;;;;5.22;1.90;;;;;;;5.62;70.43;97296.25;4534697;31;20138;-76
2021/12/01 05:19:12;;;;;;;4.45;1.95;;;;;;;5.10;72.81;97273.25;4534135;31;20580;-76
2021/12/01 05:21:40;;;;;;;5.53;1.95;;;;;;;5.20;73.05;97272.06;4534737;31;20096;-76
2021/12/01 05:24:07;;;;;;;6.85;1.95;;;;;;;5.81;70.75;97264.81;4534631;31;20131;-76
2021/12/01 05:26:34;;;;;;;5.65;2.15;;;;;;;6.16;69.42;97278.09;4533600;31;20101;-76
2021/12/01 05:29:01;;;;;;;5.60;2.10;;;;;;;5.62;70.36;97273.22;4534406;31;20087;-76
2021/12/01 05:31:28;;;;;;;6.07;2.03;;;;;;;5.61;70.94;97280.06;4534589;31;20091;-76
2021/12/01 05:33:55;;;;;;;5.22;2.30;;;;;;;5.72;70.07;97282.22;4534226;31;20122;-77
2021/12/01 05:36:22;;;;;;;5.78;1.85;;;;;;;5.97;68.79;97275.41;4519966;31;20101;-76
2021/12/01 05:38:49;;;;;;;6.70;2.15;;;;;;;6.09;68.65;97277.50;4520008;31;20382;-76
2021/12/01 05:41:16;;;;;;;8.25;2.30;;;;;;;6.09;68.82;97269.81;4534212;31;20366;-76
2021/12/01 05:43:44;;;;;;;4.32;2.00;;;;;;;5.91;68.91;97285.84;4534417;31;20405;-76
2021/12/01 05:46:11;;;;;;;5.00;1.92;;;;;;;4.76;73.94;97288.88;4534292;31;20155;-76
2021/12/01 05:48:38;;;;;;;5.57;1.87;;;;;;;5.47;71.72;97283.09;4533849;31;20095;-76
2021/12/01 05:51:05;;;;;;;6.47;2.25;;;;;;;6.21;68.54;97289.00;4534348;31;20108;-76
2021/12/01 05:53:33;;;;;;;4.57;1.92;;;;;;;5.81;69.26;97287.87;4519911;31;20170;-76
2021/12/01 05:56:00;;;;;;;5.72;2.00;;;;;;;6.06;68.26;97292.12;4519480;31;20385;-76
2021/12/01 05:58:27;;;;;;;10.55;3.33;;;;;;;6.12;67.91;97291.06;4534073;31;20467;-76
2021/12/01 06:00:54;;;;;;;9.10;3.03;;;;;;;6.62;66.06;97282.31;4533808;31;20134;-76
2021/12/01 06:03:21;;;;;;;8.75;2.95;;;;;;;6.57;66.42;97294.44;4534131;31;20087;-76
2021/12/01 06:05:48;;;;;;;15.43;5.85;;;;;;;6.38;67.30;97296.91;4534104;31;20158;-76
2021/12/01 06:08:15;;;;;;;18.62;7.07;;;;;;;6.60;67.00;97301.22;4533528;31;20564;-76
2021/12/01 06:10:44;;;;;;;15.13;4.90;;;;;;;6.83;67.12;97300.31;4533732;31;20091;-77
2021/12/01 06:13:16;;;;;;;13.35;4.75;;;;;;;6.71;67.82;97303.34;4534080;31;20097;-76
2021/12/01 06:15:44;;;;;;;14.60;5.32;;;;;;;6.19;70.30;97301.03;4519275;31;20101;-76
2021/12/01 06:18:11;;;;;;;13.25;5.12;;;;;;;6.72;68.62;97302.47;4533775;31;20108;-77
2021/12/01 06:20:39;;;;;;;13.85;5.68;;;;;;;6.21;70.42;97301.81;4519509;31;20119;-76
2021/12/01 06:23:06;;;;;;;9.82;3.47;;;;;;;6.09;70.55;97305.66;4533430;31;20078;-77
2021/12/01 06:25:33;;;;;;;8.55;3.42;;;;;;;6.20;70.16;97317.25;4519500;31;20459;-77
2021/12/01 06:28:00;;;;;;;9.77;3.42;;;;;;;6.40;69.13;97308.81;4533682;31;20486;-77
2021/12/01 06:30:31;;;;;;;13.55;4.80;;;;;;;6.23;69.86;97312.00;4533538;31;20099;-76
2021/12/01 06:32:58;;;;;;;10.80;3.67;;;;;;;7.08;66.93;97318.94;4506242;31;20694;-76
2021/12/01 06:35:25;;;;;;;12.63;4.47;;;;;;;6.57;69.15;97322.66;4533606;31;20131;-76
2021/12/01 06:37:54;;;;;;;20.35;7.43;;;;;;;6.20;70.48;97323.22;4519978;31;20111;-77
2021/12/01 06:40:25;;;;;;;23.42;8.95;;;;;;;6.41;70.06;97326.69;4536031;31;20599;-76
2021/12/01 06:42:53;;;;;;;19.80;7.30;;;;;;;6.23;70.45;97337.62;4535746;31;20104;-77
2021/12/01 06:45:20;;;;;;;12.02;4.03;;;;;;;6.48;68.80;97335.81;4536088;31;20342;-76
2021/12/01 06:47:47;;;;;;;11.70;3.80;;;;;;;6.17;69.46;97327.59;4535802;31;20178;-77
2021/12/01 06:50:15;;;;;;;12.57;3.87;;;;;;;6.13;69.75;97332.00;4535545;31;20178;-76
2021/12/01 06:52:42;;;;;;;13.35;3.72;;;;;;;5.96;70.73;97330.06;4535770;31;20435;-76
2021/12/01 06:55:10;;;;;;;11.93;4.10;;;;;;;5.86;71.42;97333.81;4535774;31;20436;-76
2021/12/01 06:57:37;;;;;;;9.85;3.22;;;;;;;6.28;70.24;97330.63;4535345;31;20087;-77
2021/12/01 07:00:06;;;;;;;8.80;2.90;;;;;;;6.42;69.69;97332.66;4535849;31;20146;-77
2021/12/01 07:02:33;;;;;;;8.23;2.75;;;;;;;6.42;70.24;97335.22;4535704;31;20467;-77
2021/12/01 07:05:00;;;;;;;6.10;2.28;;;;;;;6.17;69.73;97325.03;4535448;31;20075;-77
2021/12/01 07:07:27;;;;;;;5.95;2.25;;;;;;;5.40;71.95;97317.44;4535893;31;20114;-77
2021/12/01 07:09:55;;;;;;;6.72;2.70;;;;;;;6.15;70.95;97317.41;4535802;31;20159;-77
2021/12/01 07:12:23;;;;;;;9.07;2.83;;;;;;;5.74;71.94;97326.53;4535270;31;20163;-77
2021/12/01 07:14:50;;;;;;;9.20;2.80;;;;;;;6.11;72.07;97315.03;4535715;31;20095;-77
2021/12/01 07:17:19;;;;;;;6.25;2.35;;;;;;;7.18;69.95;97299.72;4521215;31;20151;-77
2021/12/01 07:19:48;;;;;;;8.02;2.35;;;;;;;8.87;62.63;97296.50;4535586;31;20150;-78
2021/12/01 07:22:15;;;;;;;11.15;2.33;;;;;;;9.72;55.83;97299.16;4521737;31;20166;-77
2021/12/01 07:24:44;;;;;;;10.20;2.60;;;;;;;9.47;53.51;97289.25;4536843;31;20121;-77
2021/12/01 07:27:13;;;;;;;9.13;2.67;;;;;;;9.35;55.36;97289.03;4536333;31;20447;-77
2021/12/01 07:29:42;;;;;;;11.73;4.60;;;;;;;9.65;54.20;97286.66;4536337;31;20079;-78
2021/12/01 07:32:10;;;;;;;9.20;3.17;;;;;;;9.34;56.39;97283.03;4536005;31;20091;-77
2021/12/01 07:34:43;;;;;;;10.35;3.00;;;;;;;9.32;58.27;97286.59;4536158;31;20098;-78
2021/12/01 07:37:16;;;;;;;9.00;3.28;;;;;;;9.99;57.48;97285.72;4522123;31;20092;-78
2021/12/01 07:39:44;;;;;;;6.97;2.50;;;;;;;10.79;53.67;97292.63;4535631;31;20114;-77
2021/12/01 07:42:13;;;;;;;8.60;2.80;;;;;;;10.81;52.98;97291.62;4521918;31;20830;-78
2021/12/01 07:44:40;;;;;;;7.10;2.35;;;;;;;10.63;53.34;97297.78;4521770;31;20076;-78
2021/12/01 07:47:08;;;;;;;7.85;2.40;;;;;;;9.95;54.61;97313.41;4535587;31;20092;-77
2021/12/01 07:49:36;;;;;;;5.50;2.20;;;;;;;9.33;57.03;97314.00;4535676;31;20155;-77
2021/12/01 07:52:06;;;;;;;5.37;2.00;;;;;;;10.01;57.44;97318.28;4536797;31;20611;-78
2021/12/01 07:54:34;;;;;;;5.50;1.90;;;;;;;10.57;53.52;97311.03;4521917;31;20166;-76
2021/12/01 07:57:01;;;;;;;5.18;1.87;;;;;;;10.81;51.41;97309.69;4535538;31;20434;-76
2021/12/01 07:59:29;;;;;;;7.25;2.17;;;;;;;10.13;52.45;97299.56;4535336;31;20155;-76
2021/12/01 08:01:56;;;;;;;4.82;2.00;;;;;;;10.14;53.60;97303.81;4535083;31;20095;-76
2021/12/01 08:04:23;;;;;;;5.05;2.00;;;;;;;10.17;52.39;97305.41;4521055;31;20070;-76
2021/12/01 08:06:50;;;;;;;4.87;1.70;;;;;;;9.93;53.15;97312.66;4535479;31;20158;-76
2021/12/01 08:09:17;;;;;;;5.03;1.85;;;;;;;9.72;53.97;97317.19;4534982;31;20106;-76
2021/12/01 08:11:44;;;;;;;5.85;2.10;;;;;;;9.19;54.90;97306.97;4535109;31;20092;-76
2021/12/01 08:14:11;;;;;;;6.35;2.37;;;;;;;9.08;56.09;97304.94;4535200;31;20150;-76
2021/12/01 08:16:38;;;;;;;6.15;2.45;;;;;;;8.38;57.25;97288.50;4520897;31;20151;-76
2021/12/01 08:19:05;;;;;;;6.32;2.30;;;;;;;8.59;58.32;97296.97;4520936;31;20556;-76
2021/12/01 08:21:33;;;;;;;8.90;2.97;;;;;;;8.73;57.56;97295.50;4535007;31;20413;-76
2021/12/01 08:24:08;;;;;;;5.40;2.15;;;;;;;8.43;60.17;97296.03;4535454;31;20075;-76
2021/12/01 08:26:37;;;;;;;6.62;2.20;;;;;;;7.57;60.68;97288.69;4535328;31;20083;-76
2021/12/01 08:29:04;;;;;;;20.70;7.75;;;;;;;8.09;58.53;97284.69;4534807;31;20110;-76
2021/12/01 08:31:31;;;;;;;17.33;5.85;;;;;;;8.19;61.88;97274.81;4535271;31;20097;-76
2021/12/01 08:33:58;;;;;;;18.48;5.75;;;;;;;8.04;63.28;97275.50;4535372;31;20135;-76
2021/12/01 08:36:25;;;;;;;11.35;4.40;;;;;;;7.96;63.29;97280.97;4534667;31;20083;-76
2021/12/01 08:38:52;;;;;;;14.15;4.87;;;;;;;7.87;63.00;97276.25;4535078;31;20117;-76
2021/12/01 08:41:20;;;;;;;9.27;2.97;;;;;;;8.12;63.78;97291.41;4535270;31;20087;-76
2021/12/01 08:43:47;;;;;;;8.98;3.30;;;;;;;8.50;61.16;97302.53;4520368;31;20097;-76
2021/12/01 08:46:14;;;;;;;6.53;2.20;;;;;;;8.39;62.31;97303.00;4535092;31;20084;-76
2021/12/01 08:48:41;;;;;;;6.93;2.17;;;;;;;8.30;62.75;97310.31;4534987;31;20100;-76
2021/12/01 08:51:09;;;;;;;8.35;2.30;;;;;;;8.23;62.36;97312.31;4520224;31;20400;-75
2021/12/01 08:53:37;;;;;;;6.70;2.58;;;;;;;8.56;60.82;97314.28;4535090;31;20126;-76
2021/12/01 08:56:04;;;;;;;6.70;2.20;;;;;;;8.36;61.43;97323.72;4534955;31;20118;-76
2021/12/01 08:58:32;;;;;;;6.55;2.15;;;;;;;7.88;60.06;97303.59;4534898;31;20109;-76
2021/12/01 09:01:00;;;;;;;5.97;2.40;;;;;;;7.97;61.05;97304.91;4533820;31;20078;-76
2021/12/01 09:03:27;;;;;;;6.35;2.25;;;;;;;7.75;63.02;97303.28;4520384;31;20083;-76
2021/12/01 09:05:54;;;;;;;6.68;2.70;;;;;;;7.99;60.63;97292.84;4534872;31;20152;-76
2021/12/01 09:08:22;;;;;;;9.32;2.75;;;;;;;7.75;61.69;97293.00;4534832;31;20113;-76
2021/12/01 09:10:52;;;;;;;6.30;2.62;;;;;;;7.67;61.91;97284.81;4534294;31;20161;-76
2021/12/01 09:13:22;;;;;;;6.72;2.60;;;;;;;8.23;61.06;97286.59;4535013;31;20079;-76
2021/12/01 09:15:50;;;;;;;8.13;2.90;;;;;;;7.25;64.09;97279.78;4534713;31;20110;-76
2021/12/01 09:18:17;;;;;;;7.37;2.90;;;;;;;7.70;62.85;97276.16;4534369;31;20346;-76
2021/12/01 09:20:43;;;;;;;8.80;2.67;;;;;;;7.89;63.74;97273.63;4534730;31;20090;-76
2021/12/01 09:23:11;;;;;;;7.32;2.60;;;;;;;7.80;62.61;97278.25;4534694;31;20135;-76
2021/12/01 09:25:38;;;;;;;9.13;2.90;;;;;;;7.28;64.21;97271.94;4534209;31;20099;-76
2021/12/01 09:28:16;;;;;;;7.03;2.90;;;;;;;7.36;65.19;97280.16;4534643;31;20165;-76
2021/12/01 09:30:43;;;;;;;6.43;2.50;;;;;;;7.44;63.48;97288.37;4534644;31;20464;-76
2021/12/01 09:33:11;;;;;;;8.27;2.75;;;;;;;7.42;64.95;97271.34;4519706;31;20143;-76
2021/12/01 09:35:38;;;;;;;8.35;2.80;;;;;;;7.70;63.64;97276.16;4520152;31;20748;-76
2021/12/01 09:38:05;;;;;;;7.60;2.62;;;;;;;7.49;64.98;97265.06;4534376;31;20121;-76
2021/12/01 09:40:32;;;;;;;9.75;2.53;;;;;;;7.73;64.25;97258.88;4534144;31;20083;-76
2021/12/01 09:42:59;;;;;;;7.47;2.30;;;;;;;8.03;63.58;97253.28;4534285;31;20071;-76
2021/12/01 09:45:26;;;;;;;7.07;2.62;;;;;;;7.60;63.02;97254.34;4534047;31;20106;-75
2021/12/01 09:47:54;;;;;;;7.20;2.47;;;;;;;7.68;63.13;97258.25;4534149;31;20560;-77
2021/12/01 09:50:21;;;;;;;7.60;2.58;;;;;;;7.86;63.02;97259.16;4534276;31;20102;-76
2021/12/01 09:52:48;;;;;;;8.43;2.70;;;;;;;8.02;62.98;97262.72;4519212;31;20146;-76
2021/12/01 09:55:17;;;;;;;9.18;2.90;;;;;;;8.57;61.37;97270.50;4534223;31;20147;-76
2021/12/01 09:58:11;;;;;;;7.87;2.65;;;;;;;8.82;60.42;97277.03;4519649;31;20117;-76
2021/12/01 10:00:41;;;;;;;11.80;2.47;;;;;;;8.91;59.95;97279.16;4533840;31;20490;-76
2021/12/01 10:03:09;;;;;;;8.18;2.55;;;;;;;8.93;59.22;97279.91;4519791;31;20135;-76
2021/12/01 10:06:13;;;;;;;6.72;2.70;;;;;;;8.94;58.88;97273.91;4519794;31;20465;-76
2021/12/01 10:08:52;;;;;;;6.43;2.58;;;;;;;9.26;58.75;97265.44;4516248;31;20122;-76
2021/12/01 10:11:31;;;;;;;9.07;2.58;;;;;;;8.66;59.93;97254.63;4534248;31;20150;-76
2021/12/01 10:14:04;;;;;;;12.82;3.25;;;;;;;8.53;61.30;97250.16;4535933;31;20104;-76
2021/12/01 10:16:37;;;;;;;12.63;4.00;;;;;;;8.90;61.53;97246.62;4535998;31;20131;-76
2021/12/01 10:19:06;;;;;;;7.22;2.65;;;;;;;8.92;61.60;97242.25;4536131;31;20160;-76
2021/12/01 10:21:34;;;;;;;7.75;2.60;;;;;;;8.97;60.90;97232.56;4535746;31;20087;-76
2021/12/01 10:24:10;;;;;;;8.10;2.45;;;;;;;9.08;61.79;97229.47;4536132;31;20127;-76
2021/12/01 10:26:39;;;;;;;9.95;2.60;;;;;;;9.32;61.47;97223.09;4536261;31;20159;-76
2021/12/01 10:29:15;;;;;;;7.87;2.85;;;;;;;9.36;60.25;97213.44;4521407;31;20170;-76
2021/12/01 10:31:51;;;;;;;7.68;2.67;;;;;;;9.06;60.79;97213.28;4536054;31;20557;-76
2021/12/01 10:34:35;;;;;;;7.95;2.80;;;;;;;8.88;61.71;97202.97;4536036;31;20079;-76
2021/12/01 10:37:26;;;;;;;7.15;2.50;;;;;;;9.36;61.08;97193.72;4535952;31;20485;-75
2021/12/01 10:40:08;;;;;;;7.60;2.37;;;;;;;9.03;62.00;97210.84;4535963;31;20095;-75
2021/12/01 10:42:57;;;;;;;6.57;2.53;;;;;;;8.90;62.54;97221.75;4535470;31;20088;-75
2021/12/01 10:45:26;;;;;;;8.10;2.80;;;;;;;9.05;62.07;97221.91;4536107;31;20075;-75
2021/12/01 10:47:54;;;;;;;8.73;2.70;;;;;;;8.57;64.14;97213.09;4535879;31;20571;-75
2021/12/01 10:50:23;;;;;;;9.80;2.42;;;;;;;8.71;63.73;97213.25;4521180;31;20146;-75
2021/12/01 10:53:05;;;;;;;7.55;2.50;;;;;;;8.88;62.89;97200.41;4535874;31;20102;-75
2021/12/01 10:55:33;;;;;;;6.12;2.40;;;;;;;9.02;62.30;97186.84;4535715;31;20131;-75
2021/12/01 10:58:05;;;;;;;6.05;2.10;;;;;;;8.53;65.04;97171.28;4535748;31;20166;-75
2021/12/01 11:00:43;;;;;;;8.48;2.78;;;;;;;8.93;62.20;97177.00;4535983;31;20142;-75
2021/12/01 11:03:19;;;;;;;5.95;2.40;;;;;;;9.14;61.52;97154.50;4535560;31;20087;-75
2021/12/01 11:05:52;;;;;;;6.37;2.42;;;;;;;9.05;61.03;97142.97;4535898;31;20139;-75
2021/12/01 11:08:29;;;;;;;9.20;2.55;;;;;;;8.89;62.76;97142.06;4521329;31;20159;-75
2021/12/01 11:10:59;;;;;;;6.85;2.22;;;;;;;8.68;63.18;97138.84;4535138;31;20107;-75
2021/12/01 11:13:27;;;;;;;6.68;2.50;;;;;;;9.01;60.79;97127.75;4521366;31;20477;-75
2021/12/01 11:15:56;;;;;;;6.82;2.35;;;;;;;9.32;61.26;97116.72;4535670;31;20123;-75
2021/12/01 11:18:50;;;;;;;6.85;2.45;;;;;;;9.82;58.98;97114.00;4523162;31;20135;-75
2021/12/01 11:21:23;;;;;;;9.52;2.58;;;;;;;10.22;58.35;97119.59;4521847;31;20140;-75
2021/12/01 11:23:55;;;;;;;7.60;2.75;;;;;;;10.13;58.26;97105.44;4520421;31;20154;-75
2021/12/01 11:26:26;;;;;;;6.25;2.40;;;;;;;10.13;57.55;97106.25;4535736;31;20063;-75
2021/12/01 11:28:57;;;;;;;7.75;2.60;;;;;;;10.10;57.55;97108.16;4535606;31;20146;-75
2021/12/01 11:31:38;;;;;;;6.55;2.42;;;;;;;10.24;56.84;97126.31;4535295;31;20145;-75
2021/12/01 11:34:08;;;;;;;7.03;2.55;;;;;;;9.99;57.63;97113.91;4535697;31;20079;-75
2021/12/01 11:36:38;;;;;;;5.95;2.15;;;;;;;10.31;56.47;97101.81;4535433;31;20126;-75
2021/12/01 11:39:13;;;;;;;6.78;2.42;;;;;;;10.53;57.58;97100.62;4535344;31;20119;-75
2021/12/01 11:41:43;;;;;;;7.45;2.40;;;;;;;10.47;55.29;97093.22;4521584;31;20108;-75
2021/12/01 11:44:12;;;;;;;6.40;2.37;;;;;;;10.53;56.17;97090.31;4535410;31;20143;-75
2021/12/01 11:46:39;;;;;;;7.82;2.83;;;;;;;10.86;54.87;97093.50;4535049;31;20109;-75
2021/12/01 11:49:09;;;;;;;8.45;2.30;;;;;;;11.01;54.92;97095.16;4521172;31;20096;-75
2021/12/01 11:51:44;;;;;;;8.40;2.75;;;;;;;10.90;54.24;97102.72;4520832;31;20111;-76
2021/12/01 11:54:20;;;;;;;8.93;2.40;;;;;;;10.73;56.60;97083.03;4521226;31;20146;-75
2021/12/01 11:57:05;;;;;;;8.82;2.55;;;;;;;10.76;56.53;97084.66;4520625;31;20150;-75
2021/12/01 11:59:38;;;;;;;6.78;2.40;;;;;;;9.93;58.17;97074.78;4520293;31;20167;-75